Data for 08/21/2007

Time Sea-Level Adjusted Pressure Absolute Pressure Temperature Relative Humidity Dew Point   
(mb) (inHg) (mb) (inHg) (C) (F) (%) (C) (F)
00:05 1018 30.06 847 25.01 13.7 56.7 62 6.5 43.7
00:10 1018 30.06 847 25.01 13.8 56.9 62 6.9 44.3
00:15 1018 30.06 847 25.01 13.8 56.9 62 6.7 44
00:20 1018 30.06 847 25.01 13.8 56.9 61 6.5 43.7
00:25 1018 30.06 847 25.01 13.8 56.9 63 6.9 44.4
00:30 1018 30.06 847 25.01 13.8 56.8 63 6.9 44.4
00:35 1018 30.06 847 25.01 13.8 56.9 64 7.1 44.8
00:40 1018 30.06 847 25.01 13.8 56.9 63 6.9 44.5
00:45 1018 30.06 847 25.01 13.8 56.9 61 6.4 43.5
00:50 1018 30.06 847 25.01 13.8 56.9 61 6.4 43.6
00:55 1018 30.06 847 25.01 13.9 56.9 60 6.2 43.2
01:00 1018 30.06 847 25.01 13.9 57 58 5.8 42.5
01:05 1018 30.06 847 25.01 13.9 57.1 58 5.9 42.6
01:10 1018 30.06 847 25.01 14 57.1 57 5.6 42.1
01:15 1018 30.06 847 25.01 14 57.2 58 5.8 42.5
01:20 1018 30.06 847 25.01 14 57.2 57 5.7 42.3
01:25 1018 30.06 847 25.01 14 57.2 56 5.6 42
01:30 1018 30.06 847 25.01 13.9 57.1 58 5.8 42.4
01:35 1018 30.06 847 25.01 13.9 57.1 57 5.7 42.3
01:40 1018 30.06 847 25.01 13.9 57.1 60 6.3 43.3
01:45 1018 30.06 847 25.01 13.8 56.8 61 6.6 43.8
01:50 1018 30.06 847 25.01 13.6 56.6 63 6.9 44.3
01:55 1018 30.06 847 25.01 13.4 56.2 64 6.9 44.4
02:00 1018 30.06 847 25.01 13 55.5 67 7 44.7
02:05 1018 30.06 847 25.01 12.8 55 68 7 44.6
02:10 1018 30.06 848 25.04 12.7 54.8 68 6.9 44.4
02:15 1018 30.06 848 25.04 12.7 54.8 66 6.5 43.8
02:20 1018 30.06 847 25.01 12.7 54.9 65 6.4 43.5
02:25 1018 30.06 847 25.01 12.8 55 64 6.1 43
02:30 1018 30.06 847 25.01 12.9 55.1 65 6.5 43.7
02:35 1018 30.06 847 25.01 12.8 55 68 7.1 44.7
02:40 1018 30.06 848 25.04 12.6 54.7 69 7.2 45
02:45 1018 30.06 847 25.01 12.5 54.6 68 6.8 44.3
02:50 1018 30.06 848 25.04 12.6 54.7 67 6.6 43.9
02:55 1018 30.06 848 25.04 12.8 55.1 62 5.8 42.5
03:00 1018 30.06 848 25.04 13.1 55.5 63 6.3 43.4
03:05 1018 30.06 848 25.04 13.2 55.7 62 6.1 43
03:10 1018 30.06 848 25.04 13.2 55.8 61 6 42.8
03:15 1019 30.09 848 25.04 13.2 55.8 59 5.6 42
03:20 1019 30.09 848 25.04 13.2 55.8 60 5.6 42
03:25 1019 30.09 848 25.04 13.3 56 58 5.2 41.4
03:30 1019 30.09 848 25.04 13.4 56.1 58 5.3 41.5
03:35 1019 30.09 848 25.04 13.4 56.2 58 5.4 41.6
03:40 1019 30.09 848 25.04 13.4 56.1 58 5.4 41.8
03:45 1019 30.09 848 25.04 13.3 55.9 59 5.6 42
03:50 1019 30.09 848 25.04 13.3 55.9 59 5.5 41.9
03:55 1019 30.09 848 25.04 13.2 55.8 60 5.6 42.1
04:00 1019 30.09 848 25.04 13.2 55.7 60 5.5 42
04:05 1019 30.09 848 25.04 13.2 55.7 60 5.6 42.2
04:10 1019 30.09 848 25.04 13.2 55.7 60 5.7 42.3
04:15 1019 30.09 848 25.04 13.2 55.7 60 5.7 42.2
04:20 1019 30.09 848 25.04 13.2 55.7 61 5.8 42.4
04:25 1019 30.09 848 25.04 13.1 55.6 61 5.8 42.5
04:30 1019 30.09 848 25.04 13.1 55.5 63 6.2 43.1
04:35 1019 30.09 848 25.04 12.5 54.4 65 6.1 43.1
04:40 1019 30.09 848 25.04 12 53.7 66 5.8 42.5
04:45 1019 30.09 848 25.04 12.1 53.7 65 5.8 42.4
04:50 1019 30.09 848 25.04 12.1 53.8 67 6.2 43.1
04:55 1019 30.09 848 25.04 12 53.6 67 6 42.9
05:00 1019 30.09 848 25.04 11.9 53.5 69 6.4 43.5
05:05 1019 30.09 848 25.04 11.8 53.2 69 6.4 43.5
05:10 1019 30.09 848 25.04 11.5 52.7 72 6.7 44.1
05:15 1019 30.09 848 25.04 11.4 52.6 73 6.8 44.2
05:20 1019 30.09 848 25.04 11.6 52.8 72 6.7 44.1
05:25 1019 30.09 848 25.04 11.7 53 72 6.8 44.2
05:30 1019 30.09 848 25.04 11.6 52.9 71 6.6 43.9
05:35 1019 30.09 848 25.04 11.8 53.2 66 5.7 42.3
05:40 1019 30.09 848 25.04 12.3 54.1 64 5.8 42.5
05:45 1019 30.09 848 25.04 12.5 54.5 66 6.3 43.3
05:50 1019 30.09 849 25.07 12.4 54.4 67 6.4 43.6
05:55 1019 30.09 849 25.07 12.3 54.1 68 6.7 44
06:00 1019 30.09 849 25.07 12.2 54 67 6.2 43.2
06:05 1020 30.12 849 25.07 12.4 54.3 69 6.8 44.3
06:10 1020 30.12 849 25.07 12.4 54.2 70 7.1 44.8
06:15 1020 30.12 849 25.07 12.3 54.1 69 6.8 44.2
06:20 1019 30.09 849 25.07 12.3 54.2 65 6.1 42.9
06:25 1019 30.09 849 25.07 12.7 54.8 67 6.8 44.3
06:30 1020 30.12 849 25.07 12.6 54.8 69 7.2 44.9
06:35 1020 30.12 849 25.07 12.4 54.3 68 6.6 43.9
06:40 1020 30.12 849 25.07 12.4 54.3 68 6.6 43.9
06:45 1020 30.12 849 25.07 12.5 54.4 68 6.9 44.3
06:50 1020 30.12 849 25.07 12.1 53.8 71 7.1 44.7
06:55 1020 30.12 849 25.07 12.1 53.7 71 7.1 44.7
07:00 1020 30.12 849 25.07 12.1 53.7 71 7 44.7
07:05 1020 30.12 849 25.07 12.1 53.8 72 7.1 44.9
07:10 1020 30.12 849 25.07 12.2 54 71 7.1 44.7
07:15 1020 30.12 849 25.07 12.2 54 71 7.1 44.8
07:20 1020 30.12 849 25.07 12.3 54.1 70 7.1 44.8
07:25 1020 30.12 849 25.07 12.3 54.1 71 7.2 45
07:30 1020 30.12 849 25.07 12.2 53.9 72 7.4 45.3
07:35 1020 30.12 849 25.07 12.1 53.9 72 7.3 45.2
07:40 1020 30.12 849 25.07 12.2 53.9 72 7.3 45.1
07:45 1020 30.12 849 25.07 12.3 54.2 71 7.2 44.9
07:50 1020 30.12 849 25.07 12.6 54.6 69 7.2 44.9
07:55 1020 30.12 849 25.07 12.8 55 69 7.2 44.9
08:00 1020 30.12 849 25.07 12.9 55.2 68 7.3 45.1
08:05 1020 30.12 849 25.07 13.1 55.5 68 7.3 45.2
08:10 1020 30.12 849 25.07 13 55.5 69 7.4 45.4
08:15 1020 30.12 849 25.07 13 55.5 71 7.9 46.2
08:20 1020 30.12 850 25.1 13 55.4 69 7.5 45.6
08:25 1020 30.12 850 25.1 13 55.4 71 7.9 46.1
08:30 1020 30.12 850 25.1 12.9 55.2 70 7.6 45.7
08:35 1021 30.15 850 25.1 13 55.4 70 7.7 45.9
08:40 1021 30.15 850 25.1 13.3 55.9 68 7.6 45.7
08:45 1021 30.15 850 25.1 13.7 56.7 63 7 44.5
08:50 1021 30.15 850 25.1 14.3 57.7 61 7 44.5
08:55 1021 30.15 850 25.1 14.8 58.7 60 7.1 44.8
09:00 1021 30.15 850 25.1 15.1 59.1 55 6.3 43.3
09:05 1021 30.15 850 25.1 15.1 59.2 56 6.4 43.5
09:10 1021 30.15 850 25.1 15.3 59.6 54 6.2 43.2
09:15 1021 30.15 850 25.1 15.6 60.1 54 6.3 43.4
09:20 1021 30.15 850 25.1 15.6 60.1 53 6.1 43
09:25 1021 30.15 850 25.1 16.2 61.1 50 5.8 42.4
09:30 1021 30.15 850 25.1 16.5 61.8 48 5.6 42.2
09:35 1021 30.15 850 25.1 16.7 62.1 48 5.8 42.5
09:40 1021 30.15 850 25.1 16.3 61.3 49 5.7 42.3
09:45 1021 30.15 850 25.1 16.5 61.7 48 5.6 42
09:50 1021 30.15 850 25.1 17 62.6 47 5.6 42.1
09:55 1021 30.15 850 25.1 17 62.6 48 6 42.9
10:00 1021 30.15 850 25.1 16.5 61.8 51 6.4 43.6
10:05 1021 30.15 850 25.1 16.2 61.2 51 6.1 42.9
10:10 1021 30.15 850 25.1 16.1 60.9 50 5.8 42.5
10:15 1021 30.15 850 25.1 16.3 61.4 52 6.5 43.7
10:20 1021 30.15 850 25.1 16.3 61.3 53 6.7 44.1
10:25 1021 30.15 850 25.1 16.8 62.2 46 5.2 41.3
10:30 1021 30.15 850 25.1 17.8 64 41 4.5 40.1
10:35 1021 30.15 850 25.1 18.5 65.2 38 4.2 39.5
10:40 1021 30.15 850 25.1 18.1 64.6 42 5 41
10:45 1021 30.15 850 25.1 17.9 64.3 40 4.3 39.7
10:50 1020 30.12 850 25.1 18.1 64.6 41 4.9 40.8
10:55 1020 30.12 850 25.1 17.9 64.1 42 4.9 40.8
11:00 1020 30.12 850 25.1 17.7 63.8 42 4.8 40.6
11:05 1020 30.12 850 25.1 17.9 64.3 40 4.4 39.9
11:10 1020 30.12 850 25.1 18.6 65.5 40 4.8 40.7
11:15 1020 30.12 850 25.1 18.1 64.5 42 5.1 41.2
11:20 1020 30.12 850 25.1 17.5 63.5 42 4.5 40.1
11:25 1020 30.12 850 25.1 17.3 63.1 43 4.6 40.2
11:30 1020 30.12 850 25.1 17.3 63.1 43 4.6 40.3
11:35 1020 30.12 850 25.1 17.3 63.2 42 4.3 39.8
11:40 1020 30.12 850 25.1 18.2 64.7 39 4.3 39.7
11:45 1020 30.12 850 25.1 18.8 65.8 39 4.6 40.4
11:50 1020 30.12 850 25.1 19 66.2 38 4.5 40
11:55 1020 30.12 849 25.07 19.6 67.2 35 3.7 38.6
12:00 1020 30.12 849 25.07 19.8 67.7 34 3.7 38.6
12:05 1020 30.12 849 25.07 19.5 67 33 3 37.4
12:10 1020 30.12 849 25.07 19.8 67.6 33 3.2 37.8
12:15 1020 30.12 849 25.07 19.8 67.6 34 3.5 38.3
12:20 1020 30.12 849 25.07 20.2 68.3 32 3.3 38
12:25 1020 30.12 849 25.07 20.5 68.9 34 4.4 39.9
12:30 1020 30.12 849 25.07 20.3 68.6 32 3.1 37.7
12:35 1020 30.12 849 25.07 20.5 68.9 32 3.6 38.5
12:40 1020 30.12 849 25.07 20.5 68.8 32 3.4 38.2
12:45 1020 30.12 849 25.07 20.7 69.3 31 3.1 37.6
12:50 1020 30.12 849 25.07 21 69.8 29 2.6 36.7
12:55 1020 30.12 849 25.07 20.5 68.8 32 3.4 38.1
13:00 1020 30.12 849 25.07 20.7 69.2 30 2.6 36.6
13:05 1020 30.12 849 25.07 20.9 69.7 30 3.1 37.5
13:10 1020 30.12 849 25.07 20.9 69.5 30 2.6 36.7
13:15 1019 30.09 849 25.07 20.3 68.5 30 2.2 36
13:20 1020 30.12 849 25.07 20.5 68.8 29 1.8 35.2
13:25 1020 30.12 849 25.07 21.2 70.1 28 2.2 35.9
13:30 1019 30.09 849 25.07 21.3 70.4 29 2.8 37
13:35 1019 30.09 849 25.07 21.1 70.1 28 2.2 35.9
13:40 1019 30.09 849 25.07 21.4 70.5 27 1.9 35.5
13:45 1019 30.09 849 25.07 21.8 71.2 27 2 35.7
13:50 1019 30.09 849 25.07 20.7 69.2 29 2.2 36
13:55 1019 30.09 849 25.07 21 69.8 27 1.6 34.9
14:00 1019 30.09 849 25.07 21.4 70.6 27 1.8 35.3
14:05 1019 30.09 849 25.07 21.9 71.4 27 2.3 36.2
14:10 1019 30.09 849 25.07 22.1 71.7 26 1.9 35.4
14:15 1019 30.09 849 25.07 21.4 70.4 28 2.1 35.7
14:20 1019 30.09 849 25.07 20.7 69.2 29 2.4 36.3
14:25 1019 30.09 849 25.07 20.4 68.8 29 2.2 35.9
14:30 1019 30.09 849 25.07 20.8 69.4 29 2.5 36.5
14:35 1019 30.09 849 25.07 21.2 70.1 27 1.4 34.5
14:40 1019 30.09 848 25.04 22.4 72.3 26 2.1 35.8
14:45 1019 30.09 848 25.04 22.6 72.7 26 2.2 35.9
14:50 1019 30.09 848 25.04 22.2 72 26 1.8 35.2
14:55 1019 30.09 848 25.04 22 71.6 25 1.3 34.4
15:00 1019 30.09 848 25.04 22.6 72.7 26 2.1 35.8
15:05 1019 30.09 848 25.04 22.8 73 24 1.6 34.9
15:10 1019 30.09 848 25.04 22.9 73.2 25 1.8 35.3
15:15 1019 30.09 848 25.04 22.1 71.7 25 1.3 34.4
15:20 1019 30.09 848 25.04 21.6 70.8 26 1.4 34.6
15:25 1019 30.09 848 25.04 21.4 70.6 26 1.4 34.5
15:30 1019 30.09 848 25.04 21.2 70.2 27 1.8 35.2
15:35 1019 30.09 848 25.04 21.1 69.9 27 1.5 34.7
15:40 1019 30.09 848 25.04 20.8 69.5 27 1.1 34
15:45 1019 30.09 848 25.04 21 69.7 26 0.9 33.6
15:50 1019 30.09 848 25.04 21.7 71.1 25 0.9 33.6
15:55 1019 30.09 848 25.04 22.4 72.2 25 1.5 34.7
16:00 1019 30.09 848 25.04 22.3 72.2 24 1.1 34
16:05 1019 30.09 848 25.04 22.3 72.1 25 1.5 34.7
16:10 1019 30.09 848 25.04 21.8 71.2 26 1.5 34.6
16:15 1019 30.09 848 25.04 21.4 70.5 25 0.9 33.6
16:20 1019 30.09 848 25.04 21.7 71 24 0.5 32.8
16:25 1019 30.09 848 25.04 22.4 72.2 24 0.9 33.5
16:30 1019 30.09 848 25.04 22.6 72.7 23 0.8 33.5
16:35 1019 30.09 848 25.04 22.9 73.2 23 0.9 33.7
16:40 1019 30.09 848 25.04 22.6 72.6 23 0.6 33.2
16:45 1019 30.09 848 25.04 22.7 72.8 23 0.8 33.5
16:50 1019 30.09 848 25.04 23.3 73.9 23 1 33.8
16:55 1019 30.09 848 25.04 22.8 73.1 23 0.6 33
17:00 1019 30.09 848 25.04 22.7 72.9 23 0.8 33.5
17:05 1019 30.09 848 25.04 22.9 73.1 23 0.7 33.3
17:10 1019 30.09 848 25.04 22.9 73.1 24 1.3 34.3
17:15 1019 30.09 848 25.04 22.8 73 23 0.5 33
17:20 1018 30.06 848 25.04 22.9 73.3 22 0.5 33
17:25 1018 30.06 848 25.04 22.8 73.1 22 0.4 32.7
17:30 1018 30.06 848 25.04 22.4 72.4 23 0.5 32.8
17:35 1019 30.09 848 25.04 22.8 73 22 0.4 32.7
17:40 1019 30.09 848 25.04 22.8 73 22 -0.1 31.9
17:45 1019 30.09 848 25.04 22.9 73.1 22 0.4 32.6
17:50 1019 30.09 848 25.04 22.8 73.1 22 0.3 32.5
17:55 1019 30.09 848 25.04 22.7 72.9 22 0 32
18:00 1019 30.09 848 25.04 22.6 72.6 22 0.2 32.4
18:05 1019 30.09 848 25.04 22.8 73 23 1 33.8
18:10 1019 30.09 848 25.04 22.7 72.9 22 0.3 32.5
18:15 1019 30.09 848 25.04 22.6 72.6 22 0.2 32.4
18:20 1019 30.09 848 25.04 22.4 72.3 22 0.1 32.1
18:25 1019 30.09 848 25.04 22.4 72.3 23 0.2 32.3
18:30 1019 30.09 848 25.04 22.4 72.3 23 0.6 33.2
18:35 1018 30.06 848 25.04 22.2 72 23 0.3 32.6
18:40 1018 30.06 848 25.04 22.1 71.8 24 0.6 33
18:45 1018 30.06 848 25.04 21.7 71 25 1 33.9
18:50 1018 30.06 848 25.04 21.5 70.6 24 0.3 32.5
18:55 1018 30.06 848 25.04 21.4 70.4 25 0.7 33.3
19:00 1018 30.06 848 25.04 21.2 70.2 25 0.8 33.5
19:05 1019 30.09 848 25.04 21.1 70 26 0.9 33.6
19:10 1019 30.09 848 25.04 21 69.9 27 1.7 35.1
19:15 1019 30.09 848 25.04 20.6 69.1 29 2 35.6
19:20 1019 30.09 848 25.04 20.2 68.3 29 1.7 35.1
19:25 1019 30.09 848 25.04 19.9 67.8 30 2 35.7
19:30 1019 30.09 848 25.04 19.7 67.4 31 2.1 35.7
19:35 1019 30.09 848 25.04 19.4 66.9 31 1.9 35.5
19:40 1019 30.09 848 25.04 19.2 66.5 31 1.8 35.2
19:45 1019 30.09 848 25.04 19 66.1 32 1.9 35.4
19:50 1019 30.09 848 25.04 18.8 65.9 32 1.8 35.3
19:55 1019 30.09 848 25.04 18.8 65.8 32 2 35.5
20:00 1019 30.09 848 25.04 18.8 65.8 32 2 35.7
20:05 1019 30.09 849 25.07 18.6 65.5 34 2.5 36.6
20:10 1019 30.09 849 25.07 18.5 65.3 34 2.5 36.6
20:15 1019 30.09 849 25.07 18.3 65 34 2.5 36.5
20:20 1019 30.09 849 25.07 18 64.5 34 2.2 36
20:25 1020 30.12 849 25.07 17.8 64.1 37 3 37.4
20:30 1020 30.12 849 25.07 17.6 63.7 36 2.5 36.5
20:35 1020 30.12 849 25.07 17.4 63.3 37 2.6 36.7
20:40 1020 30.12 849 25.07 17.1 62.9 38 2.6 36.8
20:45 1020 30.12 849 25.07 17 62.5 38 2.7 36.8
20:50 1020 30.12 849 25.07 16.7 62.1 39 2.8 37.1
20:55 1020 30.12 849 25.07 16.5 61.6 40 2.9 37.3
21:00 1020 30.12 849 25.07 16.2 61.2 41 3.1 37.6
21:05 1020 30.12 849 25.07 16 60.8 42 3.3 38
21:10 1020 30.12 850 25.1 15.8 60.4 43 3.2 37.8
21:15 1020 30.12 850 25.1 15.6 60.1 43 3.3 37.9
21:20 1021 30.15 850 25.1 15.5 59.8 44 3.3 37.9
21:25 1021 30.15 850 25.1 15.5 59.9 44 3.4 38
21:30 1021 30.15 850 25.1 15.4 59.7 44 3.4 38.1
21:35 1021 30.15 850 25.1 15.3 59.5 45 3.5 38.2
21:40 1021 30.15 850 25.1 15.2 59.4 45 3.4 38.2
21:45 1021 30.15 850 25.1 15.1 59.3 45 3.4 38.1
21:50 1021 30.15 850 25.1 15 59.1 45 3.4 38.1
21:55 1021 30.15 850 25.1 14.9 58.8 46 3.4 38.1
22:00 1021 30.15 850 25.1 14.7 58.5 46 3.4 38.2
22:05 1021 30.15 850 25.1 14.6 58.3 47 3.4 38.2
22:10 1021 30.15 850 25.1 14.5 58.1 47 3.4 38.1
22:15 1021 30.15 850 25.1 14.4 57.9 48 3.5 38.3
22:20 1021 30.15 850 25.1 14 57.2 50 3.8 38.8
22:25 1021 30.15 850 25.1 13.7 56.6 50 3.5 38.3
22:30 1021 30.15 850 25.1 13.8 56.8 50 3.5 38.3
22:35 1021 30.15 850 25.1 13.9 57.1 48 3.2 37.8
22:40 1021 30.15 850 25.1 14.1 57.4 47 3.1 37.7
22:45 1021 30.15 850 25.1 14.3 57.7 47 3.1 37.7
22:50 1021 30.15 850 25.1 14.3 57.8 47 3.3 37.9
22:55 1021 30.15 850 25.1 14.4 57.9 47 3.3 37.9
23:00 1021 30.15 850 25.1 14.3 57.7 48 3.4 38.1
23:05 1021 30.15 850 25.1 14.1 57.5 48 3.3 37.9
23:10 1021 30.15 850 25.1 14 57.3 49 3.5 38.3
23:15 1021 30.15 850 25.1 13.9 57 48 3.3 37.9
23:20 1021 30.15 850 25.1 13.3 56 52 3.6 38.5
23:25 1021 30.15 850 25.1 13.1 55.5 52 3.4 38.1
23:30 1021 30.15 850 25.1 13.1 55.5 54 3.9 39.1
23:35 1021 30.15 850 25.1 12.5 54.5 56 4.1 39.4
23:40 1021 30.15 850 25.1 11.8 53.3 59 4.1 39.4
23:45 1021 30.15 850 25.1 11.6 52.9 58 3.8 38.8
23:50 1021 30.15 850 25.1 11.4 52.5 61 4.3 39.7
23:55 1021 30.15 850 25.1 10.9 51.7 61 3.8 38.9
24:00 1021 30.15 850 25.1 10.8 51.4 64 4.2 39.6